Time;durP1;ratioP1;P1;durP2;ratioP2;P2;SDS_P1;SDS_P2;PMS_P1;PMS_P2;Temp;Humidity;BMP_temperature;BMP_pressure;BME280_temperature;BME280_humidity;BME280_pressure;Samples;Min_cycle;Max_cycle;Signal;HPM_P1;HPM_P2
2022/07/12 00:00:29;;;;;;;;;;;15.50;99.90;;;;;;5033702;28;19960;-75
2022/07/12 00:02:55;;;;;;;;;;;15.50;99.90;;;;;;5034250;28;19951;-76
2022/07/12 00:05:20;;;;;;;;;;;15.40;99.90;;;;;;5034772;28;19963;-77
2022/07/12 00:07:46;;;;;;;;;;;15.40;99.90;;;;;;5033858;28;19917;-76
2022/07/12 00:10:12;;;;;;;;;;;15.40;99.90;;;;;;5032670;28;19914;-76
2022/07/12 00:12:38;;;;;;;;;;;15.40;99.90;;;;;;5035383;28;20000;-76
2022/07/12 00:15:04;;;;;;;;;;;15.40;99.90;;;;;;5034397;28;19928;-75
2022/07/12 00:17:29;;;;;;;;;;;15.40;99.90;;;;;;5033820;28;19925;-75
2022/07/12 00:19:55;;;;;;;;;;;15.40;99.90;;;;;;5033184;28;20377;-75
2022/07/12 00:22:22;;;;;;;;;;;15.30;99.90;;;;;;5034279;28;19960;-75
2022/07/12 00:24:48;;;;;;;;;;;15.30;99.90;;;;;;5034857;28;19935;-76
2022/07/12 00:27:13;;;;;;;;;;;15.30;99.90;;;;;;5034105;28;20379;-75
2022/07/12 00:29:39;;;;;;;;;;;15.20;99.90;;;;;;5033207;28;19940;-75
2022/07/12 00:32:04;;;;;;;;;;;15.10;99.90;;;;;;5034009;28;19936;-75
2022/07/12 00:34:30;;;;;;;;;;;15.10;99.90;;;;;;5034849;28;19920;-75
2022/07/12 00:36:55;;;;;;;;;;;15.00;99.90;;;;;;5043490;28;19917;-75
2022/07/12 00:39:21;;;;;;;;;;;14.70;99.90;;;;;;5028469;28;20282;-74
2022/07/12 00:41:50;;;;;;;;;;;14.60;99.90;;;;;;5035250;28;19923;-84
2022/07/12 00:44:15;;;;;;;;;;;14.50;99.90;;;;;;5046792;28;19909;-75
2022/07/12 00:46:42;;;;;;;;;;;14.60;99.90;;;;;;5040509;28;19971;-75
2022/07/12 00:49:08;;;;;;;;;;;14.60;99.90;;;;;;5043343;28;19918;-75
2022/07/12 00:51:34;;;;;;;;;;;14.50;99.90;;;;;;5034636;28;20201;-75
2022/07/12 00:53:59;;;;;;;;;;;14.60;99.90;;;;;;5034426;28;19931;-76
2022/07/12 00:56:25;;;;;;;;;;;14.60;99.90;;;;;;5034419;28;20323;-75
2022/07/12 00:58:51;;;;;;;;;;;14.50;99.90;;;;;;5053639;28;19908;-85
2022/07/12 01:01:16;;;;;;;;;;;14.50;99.90;;;;;;5042840;28;20362;-75
2022/07/12 01:03:42;;;;;;;;;;;14.60;99.90;;;;;;5048202;28;19917;-74
2022/07/12 01:06:08;;;;;;;;;;;14.70;99.90;;;;;;5045735;28;19908;-75
2022/07/12 01:08:34;;;;;;;;;;;14.80;99.90;;;;;;5051367;28;19917;-76
2022/07/12 01:11:00;;;;;;;;;;;14.70;99.90;;;;;;5029711;28;20330;-75
2022/07/12 01:13:25;;;;;;;;;;;14.60;99.90;;;;;;5034224;28;19909;-75
2022/07/12 01:15:52;;;;;;;;;;;14.60;99.90;;;;;;5042710;28;20291;-75
2022/07/12 01:18:18;;;;;;;;;;;14.40;99.90;;;;;;5044062;28;19921;-76
2022/07/12 01:20:44;;;;;;;;;;;14.40;99.90;;;;;;5046868;28;20326;-76
2022/07/12 01:23:10;;;;;;;;;;;14.40;99.90;;;;;;5033459;28;19924;-76
2022/07/12 01:25:35;;;;;;;;;;;14.30;99.90;;;;;;5033778;28;19909;-80
2022/07/12 01:28:01;;;;;;;;;;;14.40;99.90;;;;;;5033590;28;19916;-81
2022/07/12 01:30:27;;;;;;;;;;;14.40;99.90;;;;;;5036526;28;19917;-82
2022/07/12 01:32:53;;;;;;;;;;;14.60;99.90;;;;;;5035969;28;20334;-80
2022/07/12 01:35:18;;;;;;;;;;;14.60;99.90;;;;;;5039868;28;20384;-81
2022/07/12 01:37:44;;;;;;;;;;;14.70;99.90;;;;;;5036469;28;20264;-80
2022/07/12 01:40:10;;;;;;;;;;;14.80;99.90;;;;;;5040822;28;19928;-81
2022/07/12 01:42:36;;;;;;;;;;;14.80;99.90;;;;;;5048040;28;19966;-81
2022/07/12 01:45:02;;;;;;;;;;;14.80;99.90;;;;;;5042224;28;19917;-75
2022/07/12 01:47:29;;;;;;;;;;;14.80;99.90;;;;;;5044799;28;19913;-79
2022/07/12 01:49:55;;;;;;;;;;;14.70;99.90;;;;;;5036768;28;19988;-81
2022/07/12 01:52:20;;;;;;;;;;;14.60;99.90;;;;;;5041371;28;20299;-83
2022/07/12 01:54:46;;;;;;;;;;;14.60;99.90;;;;;;5035269;28;20264;-80
2022/07/12 01:57:12;;;;;;;;;;;14.60;99.90;;;;;;5037972;28;19967;-82
2022/07/12 01:59:37;;;;;;;;;;;14.60;99.90;;;;;;5037747;28;19913;-80
2022/07/12 02:02:03;;;;;;;;;;;14.60;99.90;;;;;;5034746;28;19921;-81
2022/07/12 02:04:29;;;;;;;;;;;14.60;99.90;;;;;;5035175;28;19917;-78
2022/07/12 02:06:55;;;;;;;;;;;14.60;99.90;;;;;;5037323;28;20363;-78
2022/07/12 02:09:21;;;;;;;;;;;14.50;99.90;;;;;;5036790;28;20004;-78
2022/07/12 02:11:47;;;;;;;;;;;14.30;99.90;;;;;;5036625;28;20004;-78
2022/07/12 02:14:12;;;;;;;;;;;14.10;99.90;;;;;;5034812;28;20024;-78
2022/07/12 02:16:38;;;;;;;;;;;14.10;99.90;;;;;;5036691;28;19921;-78
2022/07/12 02:19:04;;;;;;;;;;;14.10;99.90;;;;;;5036276;28;19924;-78
2022/07/12 02:21:29;;;;;;;;;;;14.10;99.90;;;;;;5037833;28;20003;-78
2022/07/12 02:23:55;;;;;;;;;;;14.00;99.90;;;;;;5035654;28;20248;-80
2022/07/12 02:26:20;;;;;;;;;;;14.00;99.90;;;;;;5034798;28;20308;-78
2022/07/12 02:28:46;;;;;;;;;;;14.00;99.90;;;;;;5036035;28;20219;-79
2022/07/12 02:31:11;;;;;;;;;;;14.00;99.90;;;;;;5036439;28;20028;-81
2022/07/12 02:33:37;;;;;;;;;;;13.90;99.90;;;;;;5037481;28;19979;-79
2022/07/12 02:36:03;;;;;;;;;;;14.00;99.90;;;;;;5034957;28;20390;-78
2022/07/12 02:38:28;;;;;;;;;;;14.00;99.90;;;;;;5031509;28;20020;-79
2022/07/12 02:40:54;;;;;;;;;;;14.00;99.90;;;;;;5031472;28;19913;-80
2022/07/12 02:43:19;;;;;;;;;;;14.10;99.90;;;;;;5035217;28;20216;-81
2022/07/12 02:45:45;;;;;;;;;;;14.20;99.90;;;;;;5035496;28;19913;-80
2022/07/12 02:48:12;;;;;;;;;;;14.40;99.90;;;;;;5034959;28;20336;-78
2022/07/12 02:50:40;;;;;;;;;;;14.30;99.90;;;;;;5034837;28;19975;-78
2022/07/12 02:53:07;;;;;;;;;;;14.10;99.90;;;;;;5035967;28;19909;-79
2022/07/12 02:55:33;;;;;;;;;;;14.00;99.90;;;;;;5036067;28;19913;-78
2022/07/12 02:58:00;;;;;;;;;;;14.00;99.90;;;;;;5035700;28;19916;-78
2022/07/12 03:00:26;;;;;;;;;;;13.90;99.90;;;;;;5035268;28;19924;-79
2022/07/12 03:02:52;;;;;;;;;;;13.90;99.90;;;;;;5036130;28;20064;-79
2022/07/12 03:05:17;;;;;;;;;;;14.00;99.90;;;;;;5035861;28;19917;-82
2022/07/12 03:07:43;;;;;;;;;;;14.10;99.90;;;;;;5033932;28;19960;-76
2022/07/12 03:10:08;;;;;;;;;;;14.10;99.90;;;;;;5036601;28;20051;-77
2022/07/12 03:12:34;;;;;;;;;;;14.20;99.90;;;;;;5034165;28;19917;-77
2022/07/12 03:15:00;;;;;;;;;;;14.20;99.90;;;;;;5036202;28;20007;-77
2022/07/12 03:17:26;;;;;;;;;;;14.30;99.90;;;;;;5035561;28;20102;-77
2022/07/12 03:19:51;;;;;;;;;;;14.20;99.90;;;;;;5034548;28;20286;-77
2022/07/12 03:22:17;;;;;;;;;;;14.10;99.90;;;;;;5034400;28;19917;-77
2022/07/12 03:24:42;;;;;;;;;;;14.20;99.90;;;;;;5035274;28;20004;-76
2022/07/12 03:27:09;;;;;;;;;;;14.20;99.90;;;;;;5036069;28;19959;-76
2022/07/12 03:29:34;;;;;;;;;;;14.20;99.90;;;;;;5033879;28;19939;-76
2022/07/12 03:32:00;;;;;;;;;;;14.10;99.90;;;;;;5036208;28;20347;-77
2022/07/12 03:34:25;;;;;;;;;;;14.00;99.90;;;;;;5035399;28;19909;-76
2022/07/12 03:36:51;;;;;;;;;;;14.00;99.90;;;;;;5034121;28;20008;-76
2022/07/12 03:39:17;;;;;;;;;;;14.00;99.90;;;;;;5031966;28;20011;-76
2022/07/12 03:41:42;;;;;;;;;;;14.00;99.90;;;;;;5031344;28;19909;-76
2022/07/12 03:44:08;;;;;;;;;;;14.00;99.90;;;;;;5035632;28;19913;-76
2022/07/12 03:46:33;;;;;;;;;;;13.90;99.90;;;;;;5035229;28;19963;-76
2022/07/12 03:48:59;;;;;;;;;;;13.90;99.90;;;;;;5035619;28;19917;-76
2022/07/12 03:51:25;;;;;;;;;;;14.00;99.90;;;;;;5034369;28;19924;-76
2022/07/12 03:53:51;;;;;;;;;;;14.00;99.90;;;;;;5034693;28;19913;-76
2022/07/12 03:59:00;;;;;;;;;;;13.90;99.90;;;;;;5035340;28;19942;-76
2022/07/12 04:01:26;;;;;;;;;;;14.00;99.90;;;;;;5033842;28;19913;-76
2022/07/12 04:03:51;;;;;;;;;;;14.10;99.90;;;;;;5034544;28;19913;-76
2022/07/12 04:06:17;;;;;;;;;;;14.20;99.90;;;;;;5035159;28;19935;-76
2022/07/12 04:08:42;;;;;;;;;;;14.20;99.90;;;;;;5035266;28;19909;-77
2022/07/12 04:11:08;;;;;;;;;;;14.20;99.90;;;;;;5033420;28;20752;-76
2022/07/12 04:13:34;;;;;;;;;;;14.30;99.90;;;;;;5033976;28;20346;-88
2022/07/12 04:16:00;;;;;;;;;;;14.30;99.90;;;;;;5035221;28;20279;-76
2022/07/12 04:18:25;;;;;;;;;;;14.30;99.90;;;;;;5028115;28;19944;-77
2022/07/12 04:20:51;;;;;;;;;;;14.30;99.90;;;;;;5033770;28;19964;-76
2022/07/12 04:23:16;;;;;;;;;;;14.30;99.90;;;;;;5049645;28;19924;-76
2022/07/12 04:25:42;;;;;;;;;;;14.30;99.90;;;;;;5033893;28;20272;-77
2022/07/12 04:28:07;;;;;;;;;;;14.30;99.90;;;;;;5034939;28;19920;-77
2022/07/12 04:30:33;;;;;;;;;;;14.30;99.90;;;;;;5034158;28;20292;-77
2022/07/12 04:32:58;;;;;;;;;;;14.40;99.90;;;;;;5034954;28;20217;-75
2022/07/12 04:35:24;;;;;;;;;;;14.50;99.90;;;;;;5035012;28;20232;-76
2022/07/12 04:37:50;;;;;;;;;;;14.50;99.90;;;;;;5034275;28;20311;-76
2022/07/12 04:40:15;;;;;;;;;;;14.60;99.90;;;;;;5034648;28;19913;-84
2022/07/12 04:42:41;;;;;;;;;;;14.60;99.90;;;;;;5033183;28;20193;-77
2022/07/12 04:45:06;;;;;;;;;;;14.80;99.90;;;;;;5033916;28;19909;-78
2022/07/12 04:47:34;;;;;;;;;;;14.90;99.90;;;;;;5033019;28;19914;-77
2022/07/12 04:50:02;;;;;;;;;;;14.90;99.90;;;;;;5032603;28;19959;-75
2022/07/12 04:52:28;;;;;;;;;;;15.00;99.90;;;;;;5033009;28;19928;-79
2022/07/12 04:54:53;;;;;;;;;;;15.00;99.90;;;;;;5033989;28;19917;-77
2022/07/12 04:57:19;;;;;;;;;;;15.10;99.90;;;;;;5034577;28;20547;-78
2022/07/12 04:59:44;;;;;;;;;;;15.10;99.90;;;;;;5034590;28;20263;-76
2022/07/12 05:02:10;;;;;;;;;;;15.20;99.90;;;;;;5033914;28;20336;-79
2022/07/12 05:04:35;;;;;;;;;;;15.30;99.90;;;;;;5036771;28;19948;-78
2022/07/12 05:07:01;;;;;;;;;;;15.40;99.90;;;;;;5038829;28;20015;-80
2022/07/12 05:09:27;;;;;;;;;;;15.40;99.90;;;;;;5037954;28;20583;-76
2022/07/12 05:11:52;;;;;;;;;;;15.50;99.90;;;;;;5037837;28;19914;-76
2022/07/12 05:14:17;;;;;;;;;;;15.60;99.90;;;;;;5038224;28;19917;-74
2022/07/12 05:16:43;;;;;;;;;;;15.70;99.90;;;;;;5038310;28;20462;-75
2022/07/12 05:19:09;;;;;;;;;;;15.80;99.90;;;;;;5037981;28;20308;-75
2022/07/12 05:21:34;;;;;;;;;;;15.90;99.90;;;;;;5040319;28;19917;-75
2022/07/12 05:24:02;;;;;;;;;;;16.00;99.90;;;;;;5037551;28;19914;-76
2022/07/12 05:26:28;;;;;;;;;;;16.10;99.90;;;;;;5039169;28;19975;-76
2022/07/12 05:28:54;;;;;;;;;;;16.10;99.90;;;;;;5040394;28;20296;-82
2022/07/12 05:31:19;;;;;;;;;;;16.20;99.90;;;;;;5039519;28;19917;-78
2022/07/12 05:33:45;;;;;;;;;;;16.20;99.90;;;;;;5036267;28;19924;-78
2022/07/12 05:36:11;;;;;;;;;;;16.30;99.90;;;;;;5037280;28;19917;-75
2022/07/12 05:38:36;;;;;;;;;;;16.40;99.90;;;;;;5038432;28;20319;-80
2022/07/12 05:41:02;;;;;;;;;;;16.40;99.90;;;;;;5038449;28;20296;-78
2022/07/12 05:43:27;;;;;;;;;;;16.60;99.90;;;;;;5036871;28;20003;-75
2022/07/12 05:45:53;;;;;;;;;;;16.60;99.90;;;;;;5037602;28;19967;-76
2022/07/12 05:48:18;;;;;;;;;;;16.70;99.90;;;;;;5036760;28;19936;-75
2022/07/12 05:50:44;;;;;;;;;;;16.80;99.90;;;;;;5037139;28;20255;-79
2022/07/12 05:53:21;;;;;;;;;;;16.90;99.90;;;;;;5039875;28;20259;-77
2022/07/12 05:55:47;;;;;;;;;;;17.00;99.90;;;;;;5036242;28;19920;-77
2022/07/12 05:58:13;;;;;;;;;;;17.00;99.90;;;;;;5036042;28;19913;-78
2022/07/12 06:00:38;;;;;;;;;;;17.10;99.90;;;;;;5038868;28;19917;-78
2022/07/12 06:03:04;;;;;;;;;;;17.30;99.90;;;;;;5036299;28;19917;-80
2022/07/12 06:05:29;;;;;;;;;;;17.40;99.90;;;;;;5038596;28;19925;-81
2022/07/12 06:07:55;;;;;;;;;;;17.50;99.90;;;;;;5036602;28;19917;-76
2022/07/12 06:10:20;;;;;;;;;;;17.60;99.90;;;;;;5037816;28;19917;-79
2022/07/12 06:12:46;;;;;;;;;;;17.70;99.90;;;;;;5037950;28;19917;-78
2022/07/12 06:15:11;;;;;;;;;;;17.90;99.90;;;;;;5036049;28;19917;-77
2022/07/12 06:17:38;;;;;;;;;;;18.00;99.90;;;;;;5036831;28;19929;-80
2022/07/12 06:20:03;;;;;;;;;;;18.10;99.90;;;;;;5036586;28;19939;-80
2022/07/12 06:22:29;;;;;;;;;;;18.20;99.90;;;;;;5037142;28;19921;-79
2022/07/12 06:24:54;;;;;;;;;;;18.30;99.90;;;;;;5038764;28;19920;-79
2022/07/12 06:27:20;;;;;;;;;;;18.40;99.90;;;;;;5034616;28;19928;-79
2022/07/12 06:29:47;;;;;;;;;;;18.40;99.90;;;;;;5035152;28;19924;-79
2022/07/12 06:32:14;;;;;;;;;;;18.50;99.90;;;;;;5036208;28;19913;-76
2022/07/12 06:34:39;;;;;;;;;;;18.60;99.90;;;;;;5037500;28;19917;-78
2022/07/12 06:37:08;;;;;;;;;;;18.70;99.90;;;;;;5036103;28;19924;-77
2022/07/12 06:39:33;;;;;;;;;;;18.70;99.90;;;;;;5034566;28;19921;-77
2022/07/12 06:41:59;;;;;;;;;;;18.80;99.90;;;;;;5035409;28;19917;-79
2022/07/12 06:44:24;;;;;;;;;;;18.90;99.90;;;;;;5036484;28;19984;-79
2022/07/12 06:46:50;;;;;;;;;;;19.00;99.90;;;;;;5036251;28;20312;-81
2022/07/12 06:49:15;;;;;;;;;;;19.00;99.90;;;;;;5034729;28;19967;-80
2022/07/12 06:51:41;;;;;;;;;;;19.00;99.90;;;;;;5034944;28;20939;-80
2022/07/12 06:54:07;;;;;;;;;;;19.10;99.90;;;;;;5033516;28;19948;-80
2022/07/12 06:56:32;;;;;;;;;;;19.10;99.90;;;;;;5036613;28;19971;-79
2022/07/12 06:58:58;;;;;;;;;;;19.10;99.90;;;;;;5035786;28;19924;-80
2022/07/12 07:01:23;;;;;;;;;;;19.20;99.90;;;;;;5018961;28;19917;-81
2022/07/12 07:03:49;;;;;;;;;;;19.30;99.90;;;;;;5036457;28;19959;-79
2022/07/12 07:06:14;;;;;;;;;;;19.30;99.90;;;;;;5034961;28;20308;-77
2022/07/12 07:08:40;;;;;;;;;;;19.30;99.90;;;;;;5036981;28;19924;-78
2022/07/12 07:11:05;;;;;;;;;;;19.40;99.90;;;;;;5035853;28;19913;-78
2022/07/12 07:13:31;;;;;;;;;;;19.50;99.90;;;;;;5036075;28;19913;-79
2022/07/12 07:15:56;;;;;;;;;;;19.60;99.90;;;;;;5034830;28;19932;-83
2022/07/12 07:18:22;;;;;;;;;;;19.70;99.90;;;;;;5036805;28;20307;-77
2022/07/12 07:20:47;;;;;;;;;;;19.90;99.90;;;;;;5035194;28;19925;-79
2022/07/12 07:23:16;;;;;;;;;;;20.00;99.90;;;;;;5035016;28;19994;-80
2022/07/12 07:25:42;;;;;;;;;;;20.10;99.90;;;;;;5034110;28;20209;-79
2022/07/12 07:28:08;;;;;;;;;;;20.10;99.90;;;;;;5031512;28;20342;-76
2022/07/12 07:30:52;;;;;;;;;;;20.20;99.90;;;;;;5033116;28;19921;-80
2022/07/12 07:33:18;;;;;;;;;;;20.30;99.90;;;;;;5043921;28;20363;-86
2022/07/12 07:35:43;;;;;;;;;;;20.30;99.90;;;;;;5038303;28;20451;-84
2022/07/12 07:38:10;;;;;;;;;;;20.40;99.90;;;;;;5035526;28;19984;-75
2022/07/12 07:40:36;;;;;;;;;;;20.50;99.90;;;;;;5035853;28;19909;-78
2022/07/12 07:43:01;;;;;;;;;;;20.60;99.90;;;;;;5035127;28;19920;-79
2022/07/12 07:45:27;;;;;;;;;;;20.70;99.90;;;;;;5034935;28;20205;-80
2022/07/12 07:47:52;;;;;;;;;;;20.90;99.90;;;;;;5034488;28;19920;-78
2022/07/12 07:50:18;;;;;;;;;;;21.00;99.90;;;;;;5034092;28;19916;-76
2022/07/12 07:52:44;;;;;;;;;;;21.10;99.90;;;;;;5034411;28;19924;-76
2022/07/12 07:55:10;;;;;;;;;;;21.20;99.90;;;;;;5033820;28;19920;-80
2022/07/12 07:57:35;;;;;;;;;;;21.30;99.90;;;;;;5034754;28;20019;-76
2022/07/12 08:00:01;;;;;;;;;;;21.40;99.90;;;;;;5033656;28;19913;-76
2022/07/12 08:02:27;;;;;;;;;;;21.40;99.90;;;;;;5034981;28;19913;-78
2022/07/12 08:04:52;;;;;;;;;;;21.60;99.90;;;;;;5034745;28;19917;-78
2022/07/12 08:07:18;;;;;;;;;;;21.70;99.90;;;;;;5035942;28;20618;-77
2022/07/12 08:09:43;;;;;;;;;;;21.80;99.90;;;;;;5033899;28;19961;-76
2022/07/12 08:12:09;;;;;;;;;;;21.90;99.90;;;;;;5033924;28;19921;-75
2022/07/12 08:14:34;;;;;;;;;;;22.10;99.90;;;;;;5034176;28;19986;-75
2022/07/12 08:17:00;;;;;;;;;;;22.20;99.90;;;;;;5033963;28;19948;-77
2022/07/12 08:19:25;;;;;;;;;;;22.30;99.90;;;;;;5034153;28;19942;-75
2022/07/12 08:21:51;;;;;;;;;;;22.40;99.90;;;;;;5034428;28;19914;-75
2022/07/12 08:24:17;;;;;;;;;;;22.60;99.90;;;;;;5034869;28;19913;-76
2022/07/12 08:26:42;;;;;;;;;;;23.00;99.90;;;;;;5034816;28;20006;-76
2022/07/12 08:29:08;;;;;;;;;;;23.30;99.90;;;;;;5033605;28;19921;-75
2022/07/12 08:31:33;;;;;;;;;;;23.70;99.90;;;;;;5037403;28;19917;-74
2022/07/12 08:33:59;;;;;;;;;;;24.00;99.90;;;;;;5032023;28;19916;-77
2022/07/12 08:36:24;;;;;;;;;;;24.50;99.90;;;;;;5034183;28;19921;-75
2022/07/12 08:38:50;;;;;;;;;;;24.70;99.90;;;;;;5033737;28;20373;-75
2022/07/12 08:41:15;;;;;;;;;;;25.00;99.90;;;;;;5032145;28;19936;-74
2022/07/12 08:43:42;;;;;;;;;;;25.30;99.90;;;;;;5033564;28;20650;-76
2022/07/12 08:46:09;;;;;;;;;;;25.50;99.90;;;;;;5033147;28;19913;-76
2022/07/12 08:48:35;;;;;;;;;;;25.80;99.90;;;;;;5032868;28;19917;-75
2022/07/12 08:51:02;;;;;;;;;;;26.20;99.90;;;;;;5033628;28;20308;-76
2022/07/12 08:53:28;;;;;;;;;;;26.40;99.90;;;;;;5032059;28;19917;-78
2022/07/12 08:55:53;;;;;;;;;;;26.50;99.90;;;;;;5033821;28;19917;-83
2022/07/12 08:58:19;;;;;;;;;;;26.70;99.90;;;;;;5031579;28;19916;-79
2022/07/12 09:00:44;;;;;;;;;;;26.80;99.90;;;;;;5033304;28;19975;-75
2022/07/12 09:03:12;;;;;;;;;;;27.00;99.90;;;;;;5034564;28;19960;-74
2022/07/12 09:05:38;;;;;;;;;;;27.10;99.90;;;;;;5034654;28;19920;-82
2022/07/12 09:08:10;;;;;;;;;;;27.30;99.90;;;;;;5034685;28;19917;-76
2022/07/12 09:10:56;;;;;;;;;;;27.40;99.90;;;;;;5032949;28;19928;-74
2022/07/12 09:13:41;;;;;;;;;;;27.50;99.90;;;;;;5033018;28;19967;-82
2022/07/12 09:16:17;;;;;;;;;;;27.60;99.90;;;;;;5034102;28;20012;-75
2022/07/12 09:18:44;;;;;;;;;;;27.90;99.90;;;;;;5016490;28;19925;-83
2022/07/12 09:21:10;;;;;;;;;;;27.90;99.90;;;;;;5032478;28;19920;-75
2022/07/12 09:23:35;;;;;;;;;;;28.00;99.90;;;;;;5033142;28;19962;-74
2022/07/12 09:26:07;;;;;;;;;;;27.80;99.90;;;;;;5033977;28;20223;-74
2022/07/12 09:28:32;;;;;;;;;;;28.10;99.90;;;;;;5033977;28;19921;-77
2022/07/12 09:30:58;;;;;;;;;;;28.30;99.90;;;;;;5034212;28;20533;-76
2022/07/12 09:36:12;;;;;;;;;;;28.80;99.30;;;;;;5032500;28;19932;-74
2022/07/12 09:38:47;;;;;;;;;;;28.90;99.90;;;;;;5033102;28;19917;-75
2022/07/12 09:41:15;;;;;;;;;;;29.10;98.30;;;;;;5032196;28;20017;-76
2022/07/12 09:43:42;;;;;;;;;;;29.10;99.30;;;;;;5031205;28;19923;-76
2022/07/12 09:46:07;;;;;;;;;;;29.20;99.30;;;;;;5032984;28;19921;-74
2022/07/12 09:48:33;;;;;;;;;;;29.40;99.10;;;;;;5033377;28;19917;-85
2022/07/12 09:51:01;;;;;;;;;;;29.60;98.80;;;;;;5033760;28;20308;-74
2022/07/12 09:53:35;;;;;;;;;;;29.60;98.80;;;;;;5038536;28;19921;-76
2022/07/12 09:56:03;;;;;;;;;;;30.00;97.30;;;;;;5035147;28;19921;-81
2022/07/12 09:58:36;;;;;;;;;;;30.00;96.30;;;;;;5038066;28;19968;-73
2022/07/12 10:01:02;;;;;;;;;;;29.90;96.40;;;;;;5036978;28;20555;-76
2022/07/12 10:03:29;;;;;;;;;;;29.70;96.30;;;;;;5036888;28;20280;-75
2022/07/12 10:05:55;;;;;;;;;;;29.30;98.30;;;;;;5036122;28;20059;-75
2022/07/12 10:08:21;;;;;;;;;;;29.30;98.20;;;;;;5037585;28;20019;-75
2022/07/12 10:10:48;;;;;;;;;;;29.50;97.80;;;;;;5036753;28;20376;-75
2022/07/12 10:13:14;;;;;;;;;;;29.50;98.80;;;;;;5037588;28;20220;-74
2022/07/12 10:15:43;;;;;;;;;;;29.50;98.40;;;;;;5037153;28;19928;-76
2022/07/12 10:18:14;;;;;;;;;;;29.80;97.80;;;;;;5036576;28;19929;-77
2022/07/12 10:20:44;;;;;;;;;;;29.70;96.80;;;;;;5035914;28;19923;-75
2022/07/12 10:23:15;;;;;;;;;;;29.50;99.20;;;;;;5034160;28;20214;-76
2022/07/12 10:25:41;;;;;;;;;;;29.40;99.10;;;;;;5036603;28;20059;-76
2022/07/12 10:28:07;;;;;;;;;;;29.70;97.70;;;;;;5036889;28;20282;-78
2022/07/12 10:30:41;;;;;;;;;;;29.70;97.30;;;;;;5037014;28;19919;-75
2022/07/12 10:33:14;;;;;;;;;;;29.40;96.90;;;;;;5038562;28;19924;-77
2022/07/12 10:35:39;;;;;;;;;;;28.90;98.00;;;;;;5037116;28;19921;-75
2022/07/12 10:38:11;;;;;;;;;;;28.60;99.20;;;;;;5032219;28;19935;-75
2022/07/12 10:40:37;;;;;;;;;;;28.80;99.40;;;;;;5043739;28;19912;-75
2022/07/12 10:43:05;;;;;;;;;;;29.00;99.10;;;;;;5033760;28;20215;-75
2022/07/12 10:45:32;;;;;;;;;;;29.30;98.20;;;;;;5038561;28;19960;-73
2022/07/12 10:48:18;;;;;;;;;;;29.70;96.50;;;;;;5030202;28;19960;-75
2022/07/12 10:50:44;;;;;;;;;;;29.70;96.40;;;;;;5035056;28;19909;-74
2022/07/12 10:53:19;;;;;;;;;;;29.50;98.30;;;;;;5035893;28;19913;-74
2022/07/12 10:56:03;;;;;;;;;;;29.60;98.30;;;;;;5062447;28;20039;-73
2022/07/12 10:58:35;;;;;;;;;;;29.70;98.10;;;;;;5039217;28;19921;-74
2022/07/12 11:01:05;;;;;;;;;;;29.90;97.80;;;;;;5038464;28;20046;-75
2022/07/12 11:03:32;;;;;;;;;;;30.30;96.20;;;;;;5034618;28;20204;-75
2022/07/12 11:06:03;;;;;;;;;;;30.50;94.70;;;;;;5042555;28;19921;-77
2022/07/12 11:08:29;;;;;;;;;;;30.60;95.10;;;;;;5032526;28;20062;-77
2022/07/12 11:10:58;;;;;;;;;;;30.30;96.10;;;;;;5032662;28;20320;-75
2022/07/12 11:13:24;;;;;;;;;;;30.40;96.70;;;;;;5040530;28;19959;-78
2022/07/12 11:15:56;;;;;;;;;;;30.30;95.00;;;;;;5036455;28;19921;-74
2022/07/12 11:18:32;;;;;;;;;;;30.00;96.70;;;;;;5038102;28;19936;-75
2022/07/12 11:20:58;;;;;;;;;;;30.20;98.40;;;;;;5043352;28;20254;-79
2022/07/12 11:23:24;;;;;;;;;;;30.40;96.40;;;;;;5039368;28;19928;-74
2022/07/12 11:25:50;;;;;;;;;;;30.80;94.80;;;;;;5044530;28;20261;-75
2022/07/12 11:28:17;;;;;;;;;;;30.90;94.20;;;;;;5040024;28;19914;-75
2022/07/12 11:30:48;;;;;;;;;;;30.40;94.60;;;;;;5038404;28;20320;-73
2022/07/12 11:33:13;;;;;;;;;;;30.20;94.50;;;;;;5041911;28;19962;-73
2022/07/12 11:35:42;;;;;;;;;;;30.20;94.70;;;;;;5045249;28;19917;-75
2022/07/12 11:38:08;;;;;;;;;;;30.30;96.40;;;;;;5040388;28;19963;-75
2022/07/12 11:40:34;;;;;;;;;;;30.10;96.60;;;;;;5029926;28;20301;-75
2022/07/12 11:43:00;;;;;;;;;;;30.20;96.30;;;;;;5027346;28;20000;-75
2022/07/12 11:45:27;;;;;;;;;;;30.50;96.50;;;;;;5032083;28;19909;-78
2022/07/12 11:47:52;;;;;;;;;;;30.50;97.30;;;;;;5030158;28;19921;-75
2022/07/12 11:50:19;;;;;;;;;;;30.60;96.70;;;;;;5032198;28;20224;-77
2022/07/12 11:52:45;;;;;;;;;;;31.00;96.70;;;;;;5029235;28;19917;-74
2022/07/12 11:55:10;;;;;;;;;;;31.10;94.60;;;;;;5030333;28;20324;-75
2022/07/12 11:57:36;;;;;;;;;;;30.90;94.30;;;;;;5031830;28;20455;-75
2022/07/12 12:00:17;;;;;;;;;;;31.20;95.10;;;;;;5030299;28;20847;-75
2022/07/12 12:02:43;;;;;;;;;;;31.30;96.30;;;;;;5029891;28;19943;-74
2022/07/12 12:05:09;;;;;;;;;;;31.60;96.70;;;;;;5030963;28;19917;-76
2022/07/12 12:07:34;;;;;;;;;;;31.40;94.80;;;;;;5030813;28;20316;-75
2022/07/12 12:10:20;;;;;;;;;;;31.70;94.90;;;;;;5030506;28;20232;-75
2022/07/12 12:12:52;;;;;;;;;;;31.80;93.40;;;;;;5027348;28;19917;-78
2022/07/12 12:15:22;;;;;;;;;;;31.70;95.60;;;;;;5030477;28;20628;-78
2022/07/12 12:17:54;;;;;;;;;;;31.80;94.80;;;;;;5029717;28;19925;-75
2022/07/12 12:20:24;;;;;;;;;;;31.70;93.50;;;;;;5031198;28;20371;-74
2022/07/12 12:22:50;;;;;;;;;;;31.50;93.40;;;;;;5028887;28;20339;-76
2022/07/12 12:25:16;;;;;;;;;;;31.20;93.20;;;;;;5028035;28;19918;-75
2022/07/12 12:27:42;;;;;;;;;;;31.00;93.10;;;;;;5031051;28;19967;-75
2022/07/12 12:30:08;;;;;;;;;;;30.70;93.70;;;;;;5031177;28;19925;-78
2022/07/12 12:32:50;;;;;;;;;;;30.50;92.00;;;;;;5029300;28;19992;-75
2022/07/12 12:35:17;;;;;;;;;;;30.70;92.90;;;;;;5029687;28;19923;-78
2022/07/12 12:37:56;;;;;;;;;;;30.50;93.10;;;;;;5029894;28;19924;-74
2022/07/12 12:40:23;;;;;;;;;;;30.40;94.80;;;;;;5029807;28;19921;-74
2022/07/12 12:42:49;;;;;;;;;;;30.30;94.60;;;;;;5027580;28;19921;-75
2022/07/12 12:45:21;;;;;;;;;;;30.50;94.90;;;;;;5030791;28;20331;-74
2022/07/12 12:48:01;;;;;;;;;;;30.50;93.50;;;;;;5029608;28;19916;-75
2022/07/12 12:50:39;;;;;;;;;;;30.60;95.00;;;;;;5018803;28;19925;-75
2022/07/12 12:53:16;;;;;;;;;;;30.60;94.30;;;;;;5029466;28;19917;-79
2022/07/12 12:55:43;;;;;;;;;;;30.50;94.60;;;;;;5030231;28;19924;-76
2022/07/12 12:58:09;;;;;;;;;;;30.70;92.10;;;;;;5030768;28;20015;-75
2022/07/12 13:00:37;;;;;;;;;;;30.20;92.60;;;;;;5041098;28;19924;-75
2022/07/12 13:03:03;;;;;;;;;;;29.80;94.00;;;;;;5039811;28;19917;-75
2022/07/12 13:05:29;;;;;;;;;;;29.60;93.60;;;;;;5042457;28;19917;-74
2022/07/12 13:07:55;;;;;;;;;;;29.40;93.50;;;;;;5042552;28;19912;-79
2022/07/12 13:10:20;;;;;;;;;;;29.30;93.70;;;;;;5021454;28;19917;-74
2022/07/12 13:12:46;;;;;;;;;;;29.10;95.10;;;;;;5028907;28;20313;-75
2022/07/12 13:15:12;;;;;;;;;;;29.20;94.50;;;;;;5028350;28;20004;-74
2022/07/12 13:17:37;;;;;;;;;;;29.20;93.40;;;;;;5027902;28;20340;-73
2022/07/12 13:20:04;;;;;;;;;;;29.10;93.10;;;;;;5031217;28;20325;-77
2022/07/12 13:22:30;;;;;;;;;;;29.00;95.90;;;;;;5029601;28;19917;-74
2022/07/12 13:24:55;;;;;;;;;;;29.00;93.90;;;;;;5029544;28;19913;-75
2022/07/12 13:27:21;;;;;;;;;;;28.90;94.70;;;;;;5039693;28;19929;-74
2022/07/12 13:29:46;;;;;;;;;;;29.00;95.80;;;;;;5033079;28;19919;-75
2022/07/12 13:32:12;;;;;;;;;;;29.00;94.70;;;;;;5034213;28;19932;-75
2022/07/12 13:34:38;;;;;;;;;;;29.30;93.10;;;;;;5033831;28;19923;-75
2022/07/12 13:37:04;;;;;;;;;;;29.30;93.10;;;;;;5032037;28;19984;-75
2022/07/12 13:42:14;;;;;;;;;;;28.90;94.20;;;;;;5034322;28;19924;-74
2022/07/12 13:44:42;;;;;;;;;;;29.00;94.30;;;;;;5039780;28;19917;-75
2022/07/12 13:47:07;;;;;;;;;;;28.90;95.10;;;;;;5021742;28;20020;-75
2022/07/12 13:49:33;;;;;;;;;;;28.70;96.10;;;;;;5032303;28;20011;-75
2022/07/12 13:51:58;;;;;;;;;;;28.60;95.90;;;;;;5032538;28;19928;-74
2022/07/12 13:54:24;;;;;;;;;;;28.60;95.10;;;;;;5033820;28;19913;-75
2022/07/12 13:56:49;;;;;;;;;;;28.70;96.20;;;;;;5033714;28;19913;-75
2022/07/12 13:59:15;;;;;;;;;;;28.80;96.00;;;;;;5034017;28;19924;-75
2022/07/12 14:01:40;;;;;;;;;;;28.80;96.90;;;;;;5023499;28;20518;-79
2022/07/12 14:04:06;;;;;;;;;;;28.60;96.10;;;;;;5033811;28;19923;-74
2022/07/12 14:06:31;;;;;;;;;;;28.50;95.00;;;;;;5034060;28;19955;-74
2022/07/12 14:08:57;;;;;;;;;;;28.40;96.10;;;;;;5032836;28;20224;-74
2022/07/12 14:11:23;;;;;;;;;;;28.40;96.10;;;;;;5033850;28;19954;-80
2022/07/12 14:13:48;;;;;;;;;;;28.40;96.40;;;;;;5032632;28;19956;-77
2022/07/12 14:16:14;;;;;;;;;;;28.50;96.60;;;;;;5033913;28;19925;-75
2022/07/12 14:18:39;;;;;;;;;;;28.50;96.60;;;;;;5034955;28;19966;-75
2022/07/12 14:21:06;;;;;;;;;;;28.40;96.10;;;;;;5036408;28;19936;-75